Time;durP1;ratioP1;P1;durP2;ratioP2;P2;SDS_P1;SDS_P2;PMS_P1;PMS_P2;Temp;Humidity;BMP_temperature;BMP_pressure;BME280_temperature;BME280_humidity;BME280_pressure;Samples;Min_cycle;Max_cycle;Signal;HPM_P1;HPM_P2
2021/09/11 00:02:06;;;;;;;1.83;1.13;;;18.40;99.90;;;;;;6237133;23;20202;-89
2021/09/11 00:04:48;;;;;;;1.73;1.10;;;18.50;99.90;;;;;;6232962;23;20176;-90
2021/09/11 00:07:20;;;;;;;4.07;1.30;;;18.50;99.90;;;;;;6230110;23;20184;-90
2021/09/11 00:09:52;;;;;;;3.00;1.13;;;18.50;99.90;;;;;;6232759;23;20222;-90
2021/09/11 00:12:26;;;;;;;1.40;1.17;;;18.50;99.90;;;;;;6235985;23;20168;-90
2021/09/11 00:15:00;;;;;;;3.60;1.23;;;18.50;99.90;;;;;;6230531;23;20175;-90
2021/09/11 00:17:31;;;;;;;5.00;1.13;;;18.60;99.90;;;;;;6233946;23;20161;-90
2021/09/11 00:20:02;;;;;;;4.37;1.20;;;18.60;99.90;;;;;;6221538;23;20219;-88
2021/09/11 00:22:34;;;;;;;1.70;1.03;;;18.80;99.90;;;;;;6230109;23;20176;-89
2021/09/11 00:25:11;;;;;;;1.40;1.10;;;18.70;99.90;;;;;;6230146;23;20575;-90
2021/09/11 00:27:45;;;;;;;1.20;1.10;;;18.80;99.90;;;;;;6233231;23;20170;-89
2021/09/11 00:30:17;;;;;;;3.70;1.10;;;18.80;99.90;;;;;;6201807;23;20610;-89
2021/09/11 00:32:50;;;;;;;3.30;1.00;;;18.70;99.90;;;;;;6225660;23;20180;-90
2021/09/11 00:35:21;;;;;;;2.27;1.50;;;18.90;99.90;;;;;;6231632;23;20230;-89
2021/09/11 00:37:52;;;;;;;0.93;0.90;;;19.00;99.90;;;;;;6231810;23;20181;-89
2021/09/11 00:40:24;;;;;;;4.43;0.87;;;19.00;99.90;;;;;;6233796;23;20195;-89
2021/09/11 00:42:58;;;;;;;1.37;1.00;;;18.60;99.90;;;;;;6235100;23;20604;-89
2021/09/11 00:45:33;;;;;;;2.17;1.27;;;18.50;99.90;;;;;;6209875;23;20534;-95
2021/09/11 00:48:05;;;;;;;2.50;1.10;;;18.70;99.90;;;;;;6233960;23;20175;-93
2021/09/11 00:50:36;;;;;;;2.93;0.97;;;18.80;99.90;;;;;;6230455;23;20534;-94
2021/09/11 00:53:08;;;;;;;1.77;1.20;;;18.80;99.90;;;;;;6232795;23;20176;-92
2021/09/11 00:55:39;;;;;;;1.77;1.20;;;18.70;99.90;;;;;;6206427;23;20180;-94
2021/09/11 00:58:12;;;;;;;0.93;0.90;;;18.50;99.90;;;;;;6221019;23;20215;-94
2021/09/11 01:00:44;;;;;;;1.30;1.10;;;18.50;99.90;;;;;;6228807;23;20173;-93
2021/09/11 01:03:18;;;;;;;0.90;0.80;;;18.60;99.90;;;;;;6213543;23;20168;-94
2021/09/11 01:08:33;;;;;;;1.37;0.90;;;18.40;99.90;;;;;;6238974;22;20246;-93
2021/09/11 01:13:43;;;;;;;3.43;1.30;;;18.30;99.90;;;;;;6242663;23;20203;-91
2021/09/11 01:16:15;;;;;;;4.37;0.80;;;18.30;99.90;;;;;;6241928;23;21007;-92
2021/09/11 01:18:49;;;;;;;1.83;0.90;;;18.30;99.90;;;;;;6193490;23;20180;-91
2021/09/11 01:21:20;;;;;;;1.57;0.70;;;18.20;99.90;;;;;;6241362;23;20187;-93
2021/09/11 01:24:02;;;;;;;3.90;0.87;;;18.30;99.90;;;;;;6243464;23;20203;-92
2021/09/11 01:26:33;;;;;;;1.40;0.80;;;18.20;99.90;;;;;;6224684;23;20203;-94
2021/09/11 01:29:05;;;;;;;1.67;0.60;;;18.00;99.90;;;;;;6235638;23;20183;-93
2021/09/11 01:31:39;;;;;;;1.50;0.80;;;18.00;99.90;;;;;;6236094;23;20200;-93
2021/09/11 01:34:12;;;;;;;2.40;1.00;;;17.80;99.90;;;;;;6210324;23;20174;-94
2021/09/11 01:36:43;;;;;;;3.03;1.00;;;17.80;99.90;;;;;;6222317;23;20196;-95
2021/09/11 01:39:18;;;;;;;2.87;1.00;;;17.80;99.90;;;;;;6221287;23;20198;-89
2021/09/11 01:41:49;;;;;;;1.90;0.80;;;17.80;99.90;;;;;;6219894;23;20231;-91
2021/09/11 01:44:21;;;;;;;1.33;0.93;;;17.80;99.90;;;;;;6220646;23;20169;-91
2021/09/11 01:46:53;;;;;;;1.47;0.80;;;17.90;99.90;;;;;;6218180;23;20231;-93
2021/09/11 01:49:24;;;;;;;5.13;1.60;;;17.80;99.90;;;;;;6221029;23;20168;-92
2021/09/11 01:51:55;;;;;;;2.67;1.43;;;17.70;99.90;;;;;;6220291;23;20192;-95
2021/09/11 01:54:29;;;;;;;3.50;1.10;;;17.60;99.90;;;;;;6223663;23;20169;-95
2021/09/11 01:57:01;;;;;;;2.10;0.90;;;17.70;99.90;;;;;;6225923;23;20195;-93
2021/09/11 02:07:31;;;;;;;1.00;0.80;;;18.10;99.90;;;;;;6241088;23;20194;-94
2021/09/11 02:20:48;;;;;;;4.20;1.27;;;18.10;99.90;;;;;;6237359;23;20326;-93
2021/09/11 02:23:19;;;;;;;2.87;1.10;;;18.00;99.90;;;;;;6235023;23;20191;-93
2021/09/11 02:36:16;;;;;;;1.20;1.00;;;17.80;99.90;;;;;;6240728;23;20187;-96
2021/09/11 02:47:07;;;;;;;1.10;0.97;;;17.70;99.90;;;;;;6218097;23;20507;-95
2021/09/11 02:49:40;;;;;;;1.27;0.80;;;17.70;99.90;;;;;;6239386;23;20165;-94
2021/09/11 02:52:14;;;;;;;1.07;1.00;;;17.60;99.90;;;;;;6238791;23;20192;-95
2021/09/11 03:03:03;;;;;;;1.90;1.00;;;17.60;99.90;;;;;;6238175;23;20229;-96
2021/09/11 03:08:19;;;;;;;2.70;0.90;;;17.60;99.90;;;;;;6232275;23;20207;-94
2021/09/11 03:10:53;;;;;;;1.97;0.80;;;17.60;99.90;;;;;;6209773;23;20204;-96
2021/09/11 03:13:42;;;;;;;1.57;0.90;;;17.60;99.90;;;;;;6209621;23;20170;-96
2021/09/11 03:30:31;;;;;;;2.90;1.20;;;17.50;99.90;;;;;;6201520;22;20215;-92
2021/09/11 03:33:02;;;;;;;2.87;1.17;;;17.40;99.90;;;;;;6238946;23;20178;-91
2021/09/11 03:35:34;;;;;;;1.57;1.27;;;17.40;99.90;;;;;;6211693;23;20172;-91
2021/09/11 03:38:05;;;;;;;3.40;1.47;;;17.30;99.90;;;;;;6234241;23;20179;-92
2021/09/11 03:40:37;;;;;;;2.90;1.40;;;17.30;99.90;;;;;;6234518;23;20255;-91
2021/09/11 03:43:10;;;;;;;4.17;1.20;;;17.30;99.90;;;;;;6184666;23;20169;-91
2021/09/11 03:45:49;;;;;;;2.07;1.30;;;17.20;99.90;;;;;;6229625;23;20211;-94
2021/09/11 03:48:20;;;;;;;3.27;1.40;;;17.20;99.90;;;;;;6234320;23;20161;-91
2021/09/11 03:50:53;;;;;;;2.70;1.10;;;17.20;99.90;;;;;;6233165;23;20219;-92
2021/09/11 03:56:11;;;;;;;2.13;1.10;;;17.10;99.90;;;;;;6225998;23;20176;-92
2021/09/11 03:58:45;;;;;;;2.77;1.40;;;17.20;99.90;;;;;;6196496;23;20692;-94
2021/09/11 04:01:20;;;;;;;3.17;1.40;;;17.10;99.90;;;;;;6235606;23;20186;-91
2021/09/11 04:03:53;;;;;;;3.40;1.20;;;17.20;99.90;;;;;;6221186;23;20184;-93
2021/09/11 04:06:24;;;;;;;1.87;1.37;;;17.10;99.90;;;;;;6203974;23;20180;-92
2021/09/11 04:11:41;;;;;;;2.57;1.30;;;17.10;99.90;;;;;;6231258;23;20222;-93
2021/09/11 04:14:13;;;;;;;2.87;1.27;;;17.10;99.90;;;;;;6231626;23;20176;-93
2021/09/11 04:16:47;;;;;;;0.90;0.90;;;17.20;99.90;;;;;;6231031;23;20173;-93
2021/09/11 04:19:21;;;;;;;2.03;1.20;;;17.10;99.90;;;;;;6231668;23;20176;-92
2021/09/11 04:21:52;;;;;;;1.47;1.10;;;17.10;99.90;;;;;;6237324;23;20538;-90
2021/09/11 04:24:25;;;;;;;2.33;1.20;;;17.10;99.90;;;;;;6233803;23;20591;-92
2021/09/11 04:26:59;;;;;;;3.87;1.27;;;17.00;99.90;;;;;;6231199;23;20653;-92
2021/09/11 04:29:30;;;;;;;1.90;1.37;;;17.10;99.90;;;;;;6228438;23;20202;-93
2021/09/11 04:32:03;;;;;;;2.00;1.10;;;17.10;99.90;;;;;;6228282;23;20653;-92
2021/09/11 04:34:35;;;;;;;2.13;1.07;;;17.00;99.90;;;;;;6233251;23;20188;-92
2021/09/11 04:37:06;;;;;;;1.57;1.10;;;17.00;99.90;;;;;;6239803;23;20187;-91
2021/09/11 04:39:38;;;;;;;2.13;1.20;;;17.10;99.90;;;;;;6236460;23;20204;-92
2021/09/11 04:42:10;;;;;;;2.73;1.10;;;17.00;99.90;;;;;;6236178;23;20164;-92
2021/09/11 04:44:42;;;;;;;0.80;0.80;;;17.00;99.90;;;;;;6228028;23;20168;-92
2021/09/11 04:47:17;;;;;;;1.37;0.90;;;17.00;99.90;;;;;;6222087;23;20247;-92
2021/09/11 04:49:48;;;;;;;2.70;1.00;;;17.00;99.90;;;;;;6223445;23;20184;-95
2021/09/11 04:52:20;;;;;;;1.70;1.03;;;16.90;99.90;;;;;;6230465;23;20233;-92
2021/09/11 04:54:57;;;;;;;1.50;0.83;;;17.00;99.90;;;;;;6233010;23;20172;-93
2021/09/11 04:57:28;;;;;;;2.10;0.57;;;16.90;99.90;;;;;;6221178;23;20192;-92
2021/09/11 04:59:59;;;;;;;1.47;0.83;;;16.90;99.90;;;;;;6223681;23;20661;-92
2021/09/11 05:02:34;;;;;;;1.47;0.80;;;16.90;99.90;;;;;;6223685;23;20222;-93
2021/09/11 05:05:07;;;;;;;1.57;0.90;;;16.90;99.90;;;;;;6221695;23;20176;-92
2021/09/11 05:07:39;;;;;;;1.70;1.00;;;16.90;99.90;;;;;;6195582;23;20498;-92
2021/09/11 05:10:12;;;;;;;1.03;0.67;;;16.90;99.90;;;;;;6230064;23;20180;-92
2021/09/11 05:12:45;;;;;;;3.73;0.90;;;16.90;99.90;;;;;;6231223;23;20208;-93
2021/09/11 05:15:18;;;;;;;2.77;1.00;;;16.80;99.90;;;;;;6228713;23;20164;-92
2021/09/11 05:17:51;;;;;;;2.80;1.03;;;16.80;99.90;;;;;;6228028;23;20168;-92
2021/09/11 05:20:22;;;;;;;1.57;1.10;;;16.80;99.90;;;;;;6203420;23;20164;-92
2021/09/11 05:22:55;;;;;;;4.93;1.30;;;16.70;99.90;;;;;;6231260;23;20177;-92
2021/09/11 05:25:27;;;;;;;2.43;1.20;;;16.70;99.90;;;;;;6229685;23;20177;-92
2021/09/11 05:27:58;;;;;;;2.67;1.10;;;16.70;99.90;;;;;;6229295;23;20177;-93
2021/09/11 05:30:30;;;;;;;2.83;0.90;;;16.70;99.90;;;;;;6225991;23;20169;-93
2021/09/11 05:33:03;;;;;;;1.30;1.03;;;16.70;99.90;;;;;;6225941;23;20276;-93
2021/09/11 05:35:34;;;;;;;3.00;1.00;;;16.70;99.90;;;;;;6224965;23;20515;-93
2021/09/11 05:38:06;;;;;;;1.80;1.43;;;16.60;99.90;;;;;;6224834;23;20571;-91
2021/09/11 05:40:37;;;;;;;2.20;0.97;;;16.60;99.90;;;;;;6216325;23;20171;-91
2021/09/11 05:43:09;;;;;;;3.60;1.07;;;16.50;99.90;;;;;;6243033;23;20157;-89
2021/09/11 05:45:40;;;;;;;2.17;0.93;;;16.50;99.90;;;;;;6238756;23;20175;-92
2021/09/11 05:48:16;;;;;;;1.47;1.23;;;16.40;99.90;;;;;;6224553;23;20169;-91
2021/09/11 05:50:47;;;;;;;3.13;1.10;;;16.30;99.90;;;;;;6198586;23;20205;-91
2021/09/11 05:53:19;;;;;;;2.67;1.30;;;16.30;99.90;;;;;;6221685;23;20204;-92
2021/09/11 05:55:51;;;;;;;2.63;1.17;;;16.20;99.90;;;;;;6219878;23;20168;-91
2021/09/11 05:58:23;;;;;;;1.53;1.23;;;16.20;99.90;;;;;;6221124;23;20176;-92
2021/09/11 06:00:54;;;;;;;2.33;1.20;;;16.20;99.90;;;;;;6196614;23;20222;-91
2021/09/11 06:03:28;;;;;;;2.17;1.00;;;16.10;99.90;;;;;;6196259;23;20177;-91
2021/09/11 06:05:59;;;;;;;2.00;1.43;;;16.10;99.90;;;;;;6219785;23;20173;-92
2021/09/11 06:08:30;;;;;;;2.97;1.37;;;16.00;99.90;;;;;;6221255;23;20206;-92
2021/09/11 06:11:02;;;;;;;4.57;1.33;;;16.00;99.90;;;;;;6221029;23;20615;-92
2021/09/11 06:13:33;;;;;;;2.37;1.40;;;16.00;99.90;;;;;;6221025;23;20228;-91
2021/09/11 06:16:05;;;;;;;3.50;1.30;;;16.00;99.90;;;;;;6220353;23;20169;-90
2021/09/11 06:18:39;;;;;;;2.73;1.47;;;16.00;99.90;;;;;;6221738;23;20183;-90
2021/09/11 06:21:10;;;;;;;1.30;1.10;;;16.10;99.90;;;;;;6221649;23;20172;-91
2021/09/11 06:23:42;;;;;;;2.77;1.83;;;16.00;99.90;;;;;;6222541;23;20184;-91
2021/09/11 06:26:13;;;;;;;2.23;1.20;;;16.00;99.90;;;;;;6196272;23;20203;-91
2021/09/11 06:28:45;;;;;;;1.63;1.37;;;16.10;99.90;;;;;;6223332;23;20176;-91
2021/09/11 06:31:16;;;;;;;3.50;1.40;;;16.10;99.90;;;;;;6224254;23;20173;-91
2021/09/11 06:33:50;;;;;;;3.10;1.40;;;16.10;99.90;;;;;;6224327;23;20204;-91
2021/09/11 06:36:22;;;;;;;2.40;1.40;;;16.20;99.90;;;;;;6202705;23;20187;-91
2021/09/11 06:38:53;;;;;;;2.00;1.37;;;16.10;99.90;;;;;;6234584;23;20180;-92
2021/09/11 06:41:25;;;;;;;2.10;1.10;;;16.10;99.90;;;;;;6238306;23;20211;-90
2021/09/11 06:43:57;;;;;;;2.47;1.30;;;16.10;99.90;;;;;;6243183;23;20171;-91
2021/09/11 06:46:31;;;;;;;1.87;1.30;;;16.10;99.90;;;;;;6242484;23;20160;-91
2021/09/11 06:49:09;;;;;;;2.87;1.40;;;16.10;99.90;;;;;;6217080;23;20171;-92
2021/09/11 06:51:41;;;;;;;2.13;1.40;;;16.10;99.90;;;;;;6239099;23;20172;-91
2021/09/11 06:54:12;;;;;;;2.80;1.20;;;16.10;99.90;;;;;;6238115;23;20216;-90
2021/09/11 06:56:44;;;;;;;5.20;1.60;;;16.20;99.90;;;;;;6237254;23;20248;-92
2021/09/11 06:59:17;;;;;;;3.57;1.37;;;16.10;99.90;;;;;;6199058;23;20337;-92
2021/09/11 07:01:49;;;;;;;1.60;1.30;;;16.10;99.90;;;;;;6225505;23;20183;-91
2021/09/11 07:04:25;;;;;;;3.40;1.50;;;16.10;99.90;;;;;;6226378;23;20219;-91
2021/09/11 07:06:56;;;;;;;2.20;1.37;;;16.00;99.90;;;;;;6228485;23;20164;-91
2021/09/11 07:09:28;;;;;;;1.57;1.17;;;16.00;99.90;;;;;;6220434;23;20183;-91
2021/09/11 07:11:59;;;;;;;2.50;1.50;;;15.90;99.90;;;;;;6220165;23;20223;-91
2021/09/11 07:14:30;;;;;;;2.43;1.23;;;15.80;99.90;;;;;;6234901;23;20176;-91
2021/09/11 07:17:03;;;;;;;3.30;1.30;;;15.80;99.90;;;;;;6199962;23;20180;-93
2021/09/11 07:22:19;;;;;;;3.20;1.50;;;15.80;99.90;;;;;;6218247;23;20253;-91
2021/09/11 07:24:51;;;;;;;3.40;1.60;;;15.90;99.90;;;;;;6223588;23;20180;-91
2021/09/11 07:27:24;;;;;;;3.03;1.60;;;15.90;99.90;;;;;;6196529;23;20614;-91
2021/09/11 07:29:56;;;;;;;2.07;1.37;;;16.00;99.90;;;;;;6221113;23;20165;-91
2021/09/11 07:32:30;;;;;;;4.60;1.40;;;15.90;99.90;;;;;;6195208;23;20200;-91
2021/09/11 07:35:01;;;;;;;2.57;1.40;;;15.90;99.90;;;;;;6221050;23;20544;-91
2021/09/11 07:37:35;;;;;;;2.70;1.40;;;15.90;99.90;;;;;;6219171;23;20236;-91
2021/09/11 07:40:08;;;;;;;7.53;1.67;;;15.80;99.90;;;;;;6222066;23;20176;-90
2021/09/11 07:42:39;;;;;;;4.77;1.67;;;15.90;99.90;;;;;;6219241;23;20184;-91
2021/09/11 07:45:13;;;;;;;3.07;1.30;;;15.90;99.90;;;;;;6195716;23;20603;-91
2021/09/11 07:47:45;;;;;;;3.93;2.00;;;15.80;99.90;;;;;;6220608;23;20176;-91
2021/09/11 07:50:19;;;;;;;3.20;1.53;;;15.80;99.90;;;;;;6195343;23;20200;-91
2021/09/11 07:52:52;;;;;;;4.00;1.93;;;15.80;99.90;;;;;;6220595;23;20204;-91
2021/09/11 07:55:23;;;;;;;3.83;1.50;;;15.80;99.90;;;;;;6225073;23;20165;-90
2021/09/11 07:57:56;;;;;;;4.00;2.20;;;15.70;99.90;;;;;;6242576;23;20180;-90
2021/09/11 08:00:30;;;;;;;2.77;1.87;;;15.60;99.90;;;;;;6216979;23;20168;-91
2021/09/11 08:03:02;;;;;;;3.37;1.80;;;15.50;99.90;;;;;;6206880;23;20511;-90
2021/09/11 08:05:33;;;;;;;3.57;2.23;;;15.50;99.90;;;;;;6199497;23;20323;-91
2021/09/11 08:08:07;;;;;;;5.93;2.00;;;15.50;99.90;;;;;;6221880;23;20183;-91
2021/09/11 08:10:40;;;;;;;4.50;1.70;;;15.40;99.90;;;;;;6220819;23;20180;-91
2021/09/11 08:13:15;;;;;;;5.43;2.37;;;15.40;99.90;;;;;;6219689;23;20334;-91
2021/09/11 08:15:47;;;;;;;3.60;2.00;;;15.30;99.90;;;;;;6194903;23;20168;-92
2021/09/11 08:18:20;;;;;;;11.53;2.50;;;15.30;99.90;;;;;;6221978;23;20203;-93
2021/09/11 08:20:51;;;;;;;3.80;2.37;;;15.30;99.90;;;;;;6219942;23;20184;-93
2021/09/11 08:23:27;;;;;;;3.63;2.07;;;15.30;99.90;;;;;;6221915;23;20287;-91
2021/09/11 08:25:58;;;;;;;5.50;2.07;;;15.30;99.90;;;;;;6236725;23;20172;-91
2021/09/11 08:28:29;;;;;;;3.57;2.17;;;15.40;99.90;;;;;;6240261;23;20176;-90
2021/09/11 08:31:01;;;;;;;3.27;2.20;;;15.40;99.90;;;;;;6238552;23;20176;-91
2021/09/11 08:33:32;;;;;;;4.53;1.93;;;15.40;99.90;;;;;;6219622;23;20238;-92
2021/09/11 08:36:03;;;;;;;2.33;2.00;;;15.40;99.90;;;;;;6218124;23;20256;-90
2021/09/11 08:38:36;;;;;;;3.20;2.00;;;15.30;99.90;;;;;;6220290;23;20177;-91
2021/09/11 08:41:08;;;;;;;2.60;2.40;;;15.30;99.90;;;;;;6219045;23;20168;-92
2021/09/11 08:43:40;;;;;;;3.20;2.03;;;15.20;99.90;;;;;;6218147;23;20247;-91
2021/09/11 08:46:11;;;;;;;4.27;2.17;;;15.20;99.90;;;;;;6217977;23;20202;-91
2021/09/11 08:48:42;;;;;;;2.87;2.00;;;15.10;99.90;;;;;;6218969;23;20184;-91
2021/09/11 08:51:13;;;;;;;4.80;2.10;;;15.20;99.90;;;;;;6191985;23;20189;-92
2021/09/11 08:53:47;;;;;;;5.47;2.30;;;15.10;99.90;;;;;;6219060;23;20231;-91
2021/09/11 08:56:18;;;;;;;3.93;1.80;;;15.20;99.90;;;;;;6217312;23;20180;-91
2021/09/11 08:59:07;;;;;;;2.40;2.00;;;15.10;99.90;;;;;;6218864;23;20164;-91
2021/09/11 09:01:39;;;;;;;4.73;2.23;;;15.10;99.90;;;;;;6218861;23;20196;-91
2021/09/11 09:04:11;;;;;;;3.97;2.00;;;15.20;99.90;;;;;;6218448;23;20279;-90
2021/09/11 09:06:44;;;;;;;5.17;2.27;;;15.20;99.90;;;;;;6217916;23;20572;-90
2021/09/11 09:09:20;;;;;;;5.20;2.27;;;15.10;99.90;;;;;;6219403;23;20168;-91
2021/09/11 09:11:51;;;;;;;4.37;2.40;;;15.10;99.90;;;;;;6194076;23;20176;-91
2021/09/11 09:14:23;;;;;;;3.00;2.30;;;15.20;99.90;;;;;;6219385;23;20196;-91
2021/09/11 09:16:54;;;;;;;7.37;2.20;;;15.10;99.90;;;;;;6217917;23;20511;-91
2021/09/11 09:19:27;;;;;;;4.47;1.80;;;15.00;99.90;;;;;;6221019;23;20184;-91
2021/09/11 09:22:04;;;;;;;4.13;2.17;;;15.00;99.90;;;;;;6220913;23;20196;-90
2021/09/11 09:24:40;;;;;;;4.80;2.17;;;15.10;99.90;;;;;;6220452;23;20196;-91
2021/09/11 09:27:11;;;;;;;3.17;2.20;;;15.10;99.90;;;;;;6219683;23;20276;-91
2021/09/11 09:29:46;;;;;;;3.90;2.20;;;15.10;99.90;;;;;;6219986;23;20251;-92
2021/09/11 09:32:20;;;;;;;4.33;2.20;;;15.00;99.90;;;;;;6220525;23;20176;-92
2021/09/11 09:34:54;;;;;;;3.87;2.20;;;14.90;99.90;;;;;;6220658;23;20200;-92
2021/09/11 09:37:25;;;;;;;4.70;1.93;;;15.00;99.90;;;;;;6221071;23;20180;-91
2021/09/11 09:39:59;;;;;;;3.70;1.70;;;14.90;99.90;;;;;;6222045;23;20172;-91
2021/09/11 09:42:31;;;;;;;3.40;2.10;;;14.80;99.90;;;;;;6220978;23;20211;-92
2021/09/11 09:45:02;;;;;;;3.07;1.70;;;14.70;99.90;;;;;;6220291;23;20177;-92
2021/09/11 09:47:33;;;;;;;6.30;2.00;;;14.70;99.90;;;;;;6219318;23;20173;-91
2021/09/11 09:50:09;;;;;;;3.47;2.03;;;14.70;99.90;;;;;;6194237;23;20223;-92
2021/09/11 09:52:41;;;;;;;3.50;1.80;;;14.70;99.90;;;;;;6221487;23;20207;-91
2021/09/11 09:55:19;;;;;;;3.17;2.00;;;14.70;99.90;;;;;;6221771;23;20223;-91
2021/09/11 09:57:50;;;;;;;4.50;2.00;;;14.60;99.90;;;;;;6227503;23;20181;-91
2021/09/11 10:00:22;;;;;;;2.47;1.70;;;14.50;99.90;;;;;;6234849;23;20248;-90
2021/09/11 10:02:53;;;;;;;3.17;2.17;;;14.50;99.90;;;;;;6232328;23;20238;-91
2021/09/11 10:05:30;;;;;;;7.97;2.40;;;14.50;99.90;;;;;;6233907;23;20169;-90
2021/09/11 10:08:07;;;;;;;3.30;2.10;;;14.60;99.90;;;;;;6231025;23;20568;-92
2021/09/11 10:10:42;;;;;;;2.70;2.00;;;14.50;99.90;;;;;;6221996;23;20176;-91
2021/09/11 10:13:15;;;;;;;6.20;2.30;;;14.50;99.90;;;;;;6223429;23;20183;-91
2021/09/11 10:15:55;;;;;;;4.30;1.93;;;14.50;99.90;;;;;;6220366;23;20277;-91
2021/09/11 10:18:46;;;;;;;2.77;2.07;;;14.60;99.90;;;;;;6223652;23;20168;-91
2021/09/11 10:21:23;;;;;;;6.60;2.20;;;14.50;99.90;;;;;;6239760;23;20175;-90
2021/09/11 10:24:28;;;;;;;5.70;2.00;;;14.60;99.90;;;;;;6217606;23;20168;-91
2021/09/11 10:27:08;;;;;;;5.33;2.27;;;14.60;99.90;;;;;;6231352;23;20183;-91
2021/09/11 10:29:49;;;;;;;2.83;2.00;;;14.60;99.90;;;;;;6223971;23;20513;-91
2021/09/11 10:32:25;;;;;;;3.80;2.20;;;14.60;99.90;;;;;;6223788;23;20176;-90
2021/09/11 10:34:58;;;;;;;4.77;1.90;;;14.60;99.90;;;;;;6222715;23;20247;-90
2021/09/11 10:37:39;;;;;;;2.70;1.77;;;14.60;99.90;;;;;;6219625;23;20689;-91
2021/09/11 10:40:43;;;;;;;2.53;1.50;;;14.60;99.90;;;;;;6222929;23;20199;-90
2021/09/11 10:43:32;;;;;;;3.03;1.43;;;14.60;99.90;;;;;;6223814;23;20187;-92
2021/09/11 10:46:11;;;;;;;2.00;1.50;;;14.50;99.90;;;;;;6228012;23;20247;-90
2021/09/11 10:48:59;;;;;;;2.77;1.67;;;14.50;99.90;;;;;;6222565;23;20443;-91
2021/09/11 10:51:45;;;;;;;4.13;1.60;;;14.40;99.90;;;;;;6219853;23;20199;-91
2021/09/11 10:54:30;;;;;;;3.30;1.80;;;14.40;99.90;;;;;;6221974;23;20200;-91
2021/09/11 10:59:57;;;;;;;7.87;2.03;;;14.30;99.90;;;;;;6221553;23;20472;-92
2021/09/11 11:02:44;;;;;;;5.60;1.90;;;14.30;99.90;;;;;;6220927;23;20172;-91
2021/09/11 11:05:20;;;;;;;4.30;1.70;;;14.30;99.90;;;;;;6220538;23;20185;-91
2021/09/11 11:07:51;;;;;;;2.97;1.90;;;14.20;99.90;;;;;;6220808;23;20179;-92
2021/09/11 11:10:23;;;;;;;2.37;1.70;;;14.20;99.90;;;;;;6221559;23;20191;-91
2021/09/11 11:12:55;;;;;;;3.03;1.80;;;14.20;99.90;;;;;;6195370;23;20183;-91
2021/09/11 11:15:29;;;;;;;3.17;1.70;;;14.20;99.90;;;;;;6220691;23;20586;-91
2021/09/11 11:18:02;;;;;;;5.07;1.77;;;14.30;99.90;;;;;;6220800;23;20183;-91
2021/09/11 11:20:35;;;;;;;2.80;1.70;;;14.20;99.90;;;;;;6221429;23;20184;-91
2021/09/11 11:23:06;;;;;;;3.07;1.90;;;14.30;99.90;;;;;;6232186;23;20187;-92
2021/09/11 11:25:39;;;;;;;2.13;1.87;;;14.10;99.90;;;;;;6238810;23;20180;-92
2021/09/11 11:28:13;;;;;;;3.60;1.70;;;14.00;99.90;;;;;;6239788;23;20176;-92
2021/09/11 11:30:50;;;;;;;5.73;2.10;;;14.00;99.90;;;;;;6241114;23;20186;-91
2021/09/11 11:33:22;;;;;;;2.27;1.70;;;14.00;99.90;;;;;;6240877;23;20179;-91
2021/09/11 11:35:53;;;;;;;2.73;1.63;;;14.00;99.90;;;;;;6214914;23;20200;-92
2021/09/11 11:38:29;;;;;;;4.57;1.83;;;14.10;99.90;;;;;;6239406;23;20169;-91
2021/09/11 11:41:07;;;;;;;5.10;1.80;;;14.10;99.90;;;;;;6240989;23;20164;-92
2021/09/11 11:43:41;;;;;;;3.30;1.77;;;14.00;99.90;;;;;;6233396;23;20168;-91
2021/09/11 11:46:15;;;;;;;2.03;1.83;;;14.10;99.90;;;;;;6223560;23;20191;-91
2021/09/11 11:48:47;;;;;;;4.53;2.10;;;14.10;99.90;;;;;;6225615;23;20255;-92
2021/09/11 11:51:19;;;;;;;5.00;1.80;;;14.10;99.90;;;;;;6225002;23;20180;-91
2021/09/11 11:53:52;;;;;;;2.17;1.80;;;14.10;99.90;;;;;;6198805;23;20176;-91
2021/09/11 11:56:23;;;;;;;3.23;1.90;;;14.10;99.90;;;;;;6222331;23;20208;-91
2021/09/11 11:59:00;;;;;;;2.30;1.50;;;14.10;99.90;;;;;;6224443;23;20627;-92
2021/09/11 12:01:33;;;;;;;4.97;1.73;;;14.10;99.90;;;;;;6175427;23;20176;-91
2021/09/11 12:04:15;;;;;;;2.70;1.60;;;14.10;99.90;;;;;;6228891;23;20192;-91
2021/09/11 12:07:00;;;;;;;4.43;1.87;;;14.10;99.90;;;;;;6198735;23;20247;-92
2021/09/11 12:09:31;;;;;;;4.10;1.97;;;14.00;99.90;;;;;;6226987;23;20518;-92
2021/09/11 12:12:12;;;;;;;3.50;1.80;;;14.00;99.90;;;;;;6234353;23;20187;-91
2021/09/11 12:14:47;;;;;;;2.93;1.70;;;14.00;99.90;;;;;;6241154;23;20220;-91
2021/09/11 12:17:20;;;;;;;3.10;1.70;;;14.10;99.90;;;;;;6240923;23;20203;-90
2021/09/11 12:19:53;;;;;;;3.87;2.00;;;14.10;99.90;;;;;;6241508;23;20181;-91
2021/09/11 12:22:25;;;;;;;4.83;1.80;;;14.10;99.90;;;;;;6239571;23;20187;-91
2021/09/11 12:25:02;;;;;;;2.67;1.67;;;14.20;99.90;;;;;;6226205;23;20528;-91
2021/09/11 12:27:33;;;;;;;4.10;1.90;;;14.30;99.90;;;;;;6199229;23;20202;-92
2021/09/11 12:30:06;;;;;;;6.07;1.53;;;14.20;99.90;;;;;;6212629;23;20177;-92
2021/09/11 12:32:39;;;;;;;2.90;1.47;;;14.20;99.90;;;;;;6235513;23;20168;-90
2021/09/11 12:35:12;;;;;;;2.77;1.70;;;14.30;99.90;;;;;;6238640;23;20204;-92
2021/09/11 12:37:56;;;;;;;4.77;1.80;;;14.20;99.90;;;;;;6240980;23;20261;-91
2021/09/11 12:40:27;;;;;;;2.80;1.57;;;14.20;99.90;;;;;;6240713;23;20156;-91
2021/09/11 12:43:00;;;;;;;4.20;1.73;;;14.20;99.90;;;;;;6231143;23;20192;-91
2021/09/11 12:45:31;;;;;;;2.73;1.50;;;14.30;99.90;;;;;;6226911;23;20168;-91
2021/09/11 12:48:06;;;;;;;2.03;1.43;;;14.20;99.90;;;;;;6196939;23;20187;-91
2021/09/11 12:50:39;;;;;;;4.17;1.67;;;14.20;99.90;;;;;;6222542;23;20207;-92
2021/09/11 12:53:12;;;;;;;3.07;1.63;;;14.20;99.90;;;;;;6199026;23;20180;-92
2021/09/11 12:55:46;;;;;;;2.73;1.80;;;14.30;99.90;;;;;;6225194;23;20200;-92
2021/09/11 12:58:17;;;;;;;2.03;1.60;;;14.20;99.90;;;;;;6227502;23;20172;-91
2021/09/11 13:00:49;;;;;;;4.87;1.30;;;14.20;99.90;;;;;;6225882;23;20234;-92
2021/09/11 13:03:22;;;;;;;2.30;1.80;;;14.20;99.90;;;;;;6225666;23;20184;-91
2021/09/11 13:05:55;;;;;;;1.60;1.40;;;14.20;99.90;;;;;;6225939;23;20176;-92
2021/09/11 13:08:26;;;;;;;1.60;1.50;;;14.20;99.90;;;;;;6226200;23;20521;-92
2021/09/11 13:11:02;;;;;;;4.20;1.53;;;14.20;99.90;;;;;;6225012;23;20255;-92
2021/09/11 13:13:34;;;;;;;3.17;1.77;;;14.20;99.90;;;;;;6199737;23;20180;-90
2021/09/11 13:16:07;;;;;;;2.07;1.40;;;14.30;99.90;;;;;;6196923;23;20192;-91
2021/09/11 13:18:44;;;;;;;2.87;1.90;;;14.20;99.90;;;;;;6222775;23;20183;-91
2021/09/11 13:21:17;;;;;;;1.77;1.50;;;14.20;99.90;;;;;;6222587;23;20184;-92
2021/09/11 13:23:50;;;;;;;4.30;1.90;;;14.20;99.90;;;;;;6221138;23;20186;-91
2021/09/11 13:26:26;;;;;;;2.47;1.50;;;14.20;99.90;;;;;;6221971;23;20172;-92
2021/09/11 13:28:58;;;;;;;2.50;1.77;;;14.20;99.90;;;;;;6197266;23;20176;-91
2021/09/11 13:31:32;;;;;;;1.80;1.70;;;14.10;99.90;;;;;;6198443;23;20514;-91
2021/09/11 13:34:05;;;;;;;2.90;1.50;;;14.20;99.90;;;;;;6222668;23;20255;-91
2021/09/11 13:36:38;;;;;;;1.60;1.47;;;14.20;99.90;;;;;;6221333;23;20196;-92
2021/09/11 13:39:09;;;;;;;2.53;1.50;;;14.20;99.90;;;;;;6196786;23;20168;-92
2021/09/11 13:41:42;;;;;;;3.17;2.03;;;14.10;99.90;;;;;;6221974;23;20183;-91
2021/09/11 13:44:13;;;;;;;2.00;1.47;;;14.10;99.90;;;;;;6221314;23;20275;-91
2021/09/11 13:46:46;;;;;;;3.30;1.67;;;14.20;99.90;;;;;;6220777;23;20241;-92
2021/09/11 13:49:19;;;;;;;5.30;1.77;;;14.10;99.90;;;;;;6221000;23;20188;-93
2021/09/11 13:51:50;;;;;;;2.83;1.90;;;14.10;99.90;;;;;;6221260;23;20562;-92
2021/09/11 13:54:22;;;;;;;4.30;2.10;;;14.00;99.90;;;;;;6222220;23;20172;-92
2021/09/11 13:56:53;;;;;;;3.97;1.70;;;14.00;99.90;;;;;;6219598;23;20233;-90
2021/09/11 13:59:24;;;;;;;2.57;1.50;;;14.00;99.90;;;;;;6195421;23;20188;-91
2021/09/11 14:01:57;;;;;;;3.73;1.50;;;14.00;99.90;;;;;;6223748;23;20533;-91
2021/09/11 14:04:32;;;;;;;3.23;1.43;;;14.00;99.90;;;;;;6223568;23;20506;-91
2021/09/11 14:07:05;;;;;;;5.33;2.07;;;14.00;99.90;;;;;;6221628;23;20175;-91
2021/09/11 14:09:41;;;;;;;2.73;1.90;;;14.00;99.90;;;;;;6223650;23;20195;-92
2021/09/11 14:12:12;;;;;;;1.53;1.43;;;14.00;99.90;;;;;;6221292;23;20176;-91
2021/09/11 14:14:44;;;;;;;3.07;1.70;;;14.00;99.90;;;;;;6223559;23;20183;-91
2021/09/11 14:17:16;;;;;;;5.17;1.63;;;13.90;99.90;;;;;;6219819;23;20215;-91
2021/09/11 14:19:49;;;;;;;2.03;1.40;;;14.00;99.90;;;;;;6221346;23;20180;-91
2021/09/11 14:22:20;;;;;;;3.30;1.80;;;14.00;99.90;;;;;;6220662;23;20204;-90
2021/09/11 14:24:51;;;;;;;3.03;1.63;;;14.00;99.90;;;;;;6222325;23;20180;-91
2021/09/11 14:27:23;;;;;;;2.67;1.50;;;13.90;99.90;;;;;;6219449;23;20183;-91
2021/09/11 14:29:56;;;;;;;1.50;1.40;;;13.90;99.90;;;;;;6221201;23;20192;-90
2021/09/11 14:32:27;;;;;;;2.20;1.43;;;13.90;99.90;;;;;;6221375;23;20180;-90
2021/09/11 14:35:00;;;;;;;2.30;1.87;;;14.00;99.90;;;;;;6220384;23;20176;-90
2021/09/11 14:37:32;;;;;;;2.67;1.60;;;14.00;99.90;;;;;;6221106;23;20299;-91
2021/09/11 14:40:06;;;;;;;3.40;1.70;;;14.10;99.90;;;;;;6221444;23;20176;-91